createdAt,value
2018-12-03T00:00:25.785Z,-1.30
2018-12-03T00:03:00.912Z,-1.35
2018-12-03T00:05:29.603Z,-1.35
2018-12-03T00:07:58.313Z,-1.32
2018-12-03T00:10:27.049Z,-1.43
2018-12-03T00:12:55.661Z,-1.52
2018-12-03T00:15:24.282Z,-1.49
2018-12-03T00:17:52.974Z,-1.51
2018-12-03T00:20:21.734Z,-1.53
2018-12-03T00:22:50.435Z,-1.63
2018-12-03T00:25:19.167Z,-1.65
2018-12-03T00:27:52.991Z,-1.68
2018-12-03T00:30:22.094Z,-1.49
2018-12-03T00:32:51.158Z,-1.60
2018-12-03T00:35:19.873Z,-1.62
2018-12-03T00:37:48.528Z,-1.75
2018-12-03T00:40:17.221Z,-1.74
2018-12-03T00:42:45.939Z,-1.68
2018-12-03T00:45:14.582Z,-1.72
2018-12-03T00:47:43.283Z,-1.74
2018-12-03T00:50:11.965Z,-1.74
2018-12-03T00:52:40.579Z,-1.71
2018-12-03T00:55:09.413Z,-1.69
2018-12-03T00:57:38.088Z,-1.58
2018-12-03T01:00:10.718Z,-1.62
2018-12-03T01:02:39.384Z,-1.66
2018-12-03T01:05:08.834Z,-1.82
2018-12-03T01:07:37.542Z,-1.83
2018-12-03T01:10:08.208Z,-1.98
2018-12-03T01:12:36.946Z,-2.01
2018-12-03T01:15:08.068Z,-2.08
2018-12-03T01:17:36.768Z,-2.25
2018-12-03T01:20:09.473Z,-2.43
2018-12-03T01:22:38.124Z,-2.66
2018-12-03T01:25:06.929Z,-2.51
2018-12-03T01:27:35.572Z,-2.65
2018-12-03T01:30:09.892Z,-2.85
2018-12-03T01:32:38.561Z,-2.98
2018-12-03T01:35:08.619Z,-2.96
2018-12-03T01:37:37.382Z,-2.98
2018-12-03T01:40:10.045Z,-2.90
2018-12-03T01:42:38.718Z,-2.90
2018-12-03T01:45:09.511Z,-2.87
2018-12-03T01:47:44.685Z,-2.87
2018-12-03T01:50:14.180Z,-2.79
2018-12-03T01:52:42.977Z,-2.73
2018-12-03T01:55:12.285Z,-2.73
2018-12-03T01:57:40.981Z,-2.76
2018-12-03T02:00:17.640Z,-2.85
2018-12-03T02:02:46.288Z,-2.75
2018-12-03T02:07:58.418Z,-2.55
2018-12-03T02:10:27.141Z,-2.46
2018-12-03T02:12:55.778Z,-2.46
2018-12-03T02:15:24.441Z,-2.47
2018-12-03T02:17:53.102Z,-2.46
2018-12-03T02:20:21.788Z,-2.70
2018-12-03T02:22:50.495Z,-2.79
2018-12-03T02:25:19.225Z,-2.71
2018-12-03T02:27:47.880Z,-2.62
2018-12-03T02:30:17.654Z,-2.77
2018-12-03T02:32:46.328Z,-2.87
2018-12-03T02:35:15.375Z,-2.83
2018-12-03T02:37:44.053Z,-2.75
2018-12-03T02:40:14.641Z,-2.81
2018-12-03T02:42:43.267Z,-2.70
2018-12-03T02:45:13.557Z,-2.75
2018-12-03T02:47:42.235Z,-2.82
2018-12-03T02:50:13.996Z,-2.85
2018-12-03T02:52:42.672Z,-2.82
2018-12-03T02:55:12.266Z,-2.72
2018-12-03T02:57:40.930Z,-2.72
2018-12-03T03:00:12.232Z,-2.74
2018-12-03T03:02:41.126Z,-2.76
2018-12-03T03:05:12.051Z,-2.71
2018-12-03T03:07:40.705Z,-2.67
2018-12-03T03:10:11.909Z,-2.70
2018-12-03T03:12:40.598Z,-2.58
2018-12-03T03:15:11.109Z,-2.48
2018-12-03T03:17:40.018Z,-2.48
2018-12-03T03:20:12.454Z,-2.61
2018-12-03T03:22:41.188Z,-2.45
2018-12-03T03:25:10.719Z,-2.51
2018-12-03T03:27:39.476Z,-2.57
2018-12-03T03:30:13.389Z,-2.55
2018-12-03T03:32:42.724Z,-2.55
2018-12-03T03:35:12.498Z,-2.60
2018-12-03T03:37:41.181Z,-3.53
2018-12-03T03:40:14.950Z,-2.43
2018-12-03T03:42:44.927Z,-2.50
2018-12-03T03:45:15.987Z,-2.49
2018-12-03T03:47:44.661Z,-2.49
2018-12-03T03:50:13.282Z,-2.68
2018-12-03T03:52:41.904Z,-2.76
2018-12-03T03:55:10.910Z,-2.64
2018-12-03T03:57:39.588Z,-2.70
2018-12-03T04:00:12.985Z,-2.59
2018-12-03T04:02:41.656Z,-2.56
2018-12-03T04:05:11.528Z,-2.66
2018-12-03T04:07:40.731Z,-2.80
2018-12-03T04:10:10.721Z,-2.84
2018-12-03T04:12:39.632Z,-2.85
2018-12-03T04:15:13.208Z,-3.69
2018-12-03T04:17:41.906Z,-2.71
2018-12-03T04:20:15.508Z,-2.62
2018-12-03T04:22:45.376Z,-2.58
2018-12-03T04:25:14.296Z,-2.52
2018-12-03T04:27:42.976Z,-2.63
2018-12-03T04:30:15.189Z,-2.65
2018-12-03T04:32:43.915Z,-2.58
2018-12-03T04:35:13.227Z,-2.46
2018-12-03T04:37:42.154Z,-2.38
2018-12-03T04:40:11.843Z,-2.42
2018-12-03T04:42:40.461Z,-2.33
2018-12-03T04:45:12.203Z,-2.27
2018-12-03T04:47:40.880Z,-2.36
2018-12-03T04:50:12.927Z,-2.38
2018-12-03T04:52:41.571Z,-2.45
2018-12-03T04:55:10.817Z,-2.53
2018-12-03T04:57:39.607Z,-2.63
2018-12-03T05:00:11.625Z,-2.55
2018-12-03T05:02:40.325Z,-2.47
2018-12-03T05:05:09.732Z,-2.40
2018-12-03T05:07:38.386Z,-2.51
2018-12-03T05:10:11.004Z,-2.53
2018-12-03T05:12:39.730Z,-2.44
2018-12-03T05:15:11.340Z,-2.55
2018-12-03T05:17:40.320Z,-2.58
2018-12-03T05:20:12.417Z,-2.50
2018-12-03T05:22:41.099Z,-2.58
2018-12-03T05:25:10.711Z,-2.64
2018-12-03T05:27:39.462Z,-2.64
2018-12-03T05:30:10.939Z,-2.65
2018-12-03T05:32:40.353Z,-2.55
2018-12-03T05:35:14.391Z,-2.49
2018-12-03T05:37:43.048Z,-2.52
2018-12-03T05:40:13.475Z,-2.51
2018-12-03T05:42:42.156Z,-2.46
2018-12-03T05:45:11.116Z,-2.42
2018-12-03T05:47:39.783Z,-2.45
2018-12-03T05:50:10.505Z,-2.47
2018-12-03T05:52:39.198Z,-2.38
2018-12-03T05:55:09.893Z,-2.44
2018-12-03T05:57:38.620Z,-2.42
2018-12-03T06:00:13.652Z,-2.28
2018-12-03T06:02:42.314Z,-2.21
2018-12-03T06:05:11.764Z,-2.33
2018-12-03T06:07:40.400Z,-2.36
2018-12-03T06:10:11.399Z,-2.30
2018-12-03T06:12:40.891Z,-2.39
2018-12-03T06:15:11.147Z,-2.39
2018-12-03T06:17:40.047Z,-2.47
2018-12-03T06:20:17.717Z,-2.32
2018-12-03T06:22:46.968Z,-2.29
2018-12-03T06:25:18.973Z,-2.22
2018-12-03T06:27:47.579Z,-2.26
2018-12-03T06:30:18.748Z,-5.17
2018-12-03T06:32:47.443Z,-2.37
2018-12-03T06:35:16.809Z,-2.40
2018-12-03T06:37:45.505Z,-2.37
2018-12-03T06:40:18.030Z,-2.33
2018-12-03T06:42:46.706Z,-2.38
2018-12-03T06:45:16.725Z,-2.42
2018-12-03T06:48:01.659Z,-2.42
2018-12-03T06:50:30.359Z,-2.28
2018-12-03T06:52:59.021Z,-2.30
2018-12-03T06:55:27.690Z,-2.25
2018-12-03T06:57:56.317Z,-2.26
2018-12-03T07:00:26.170Z,-2.10
2018-12-03T07:02:54.897Z,-2.32
2018-12-03T07:05:23.733Z,-2.46
2018-12-03T07:07:54.927Z,-2.50
2018-12-03T07:10:24.187Z,-2.55
2018-12-03T07:12:54.440Z,-2.41
2018-12-03T07:15:23.480Z,-2.42
2018-12-03T07:17:54.699Z,-2.38
2018-12-03T07:20:23.361Z,-2.29
2018-12-03T07:22:51.963Z,-2.19
2018-12-03T07:25:20.634Z,-2.25
2018-12-03T07:27:49.459Z,-2.14
2018-12-03T07:30:22.584Z,-2.26
2018-12-03T07:32:51.749Z,-2.44
2018-12-03T07:35:21.247Z,-2.20
2018-12-03T07:37:50.985Z,-2.14
2018-12-03T07:40:19.668Z,-2.30
2018-12-03T07:42:48.344Z,-2.32
2018-12-03T07:45:20.983Z,-2.10
2018-12-03T07:47:49.713Z,-1.97
2018-12-03T07:50:21.369Z,-1.87
2018-12-03T07:52:50.125Z,-1.94
2018-12-03T07:55:26.095Z,-1.80
2018-12-03T07:57:59.323Z,-1.75
2018-12-03T08:00:33.708Z,-1.64
2018-12-03T08:03:02.375Z,-1.50
2018-12-03T08:05:31.430Z,-1.57
2018-12-03T08:08:00.127Z,-1.56
2018-12-03T08:10:28.802Z,-1.57
2018-12-03T08:12:57.578Z,-1.38
2018-12-03T08:15:26.284Z,-1.32
2018-12-03T08:17:57.572Z,-1.47
2018-12-03T08:20:36.679Z,-1.41
2018-12-03T08:23:08.524Z,-1.46
2018-12-03T08:25:37.709Z,-1.43
2018-12-03T08:28:06.707Z,-1.65
2018-12-03T08:30:35.433Z,-1.43
2018-12-03T08:33:04.087Z,-1.29
2018-12-03T08:35:32.782Z,-1.39
2018-12-03T08:38:03.520Z,-1.35
2018-12-03T08:40:30.126Z,-1.21
2018-12-03T08:42:58.770Z,-1.01
2018-12-03T08:45:27.465Z,-0.51
2018-12-03T08:47:56.138Z,-0.34
2018-12-03T08:50:26.123Z,-0.13
2018-12-03T08:52:55.597Z,-0.36
2018-12-03T08:55:24.293Z,-0.36
2018-12-03T08:57:52.995Z,-0.57
2018-12-03T09:00:24.217Z,-0.83
2018-12-03T09:03:04.084Z,-0.88
2018-12-03T09:05:39.929Z,-0.59
2018-12-03T09:08:09.971Z,-6.10
2018-12-03T09:10:39.090Z,-0.68
2018-12-03T09:13:14.219Z,-0.74
2018-12-03T09:15:43.115Z,-0.75
2018-12-03T09:18:11.835Z,-0.66
2018-12-03T09:20:40.468Z,-0.62
2018-12-03T09:23:09.101Z,-0.65
2018-12-03T09:25:37.717Z,-0.63
2018-12-03T09:28:06.626Z,-0.71
2018-12-03T09:30:35.310Z,-0.69
2018-12-03T09:33:04.027Z,-0.63
2018-12-03T09:35:32.689Z,-0.75
2018-12-03T09:38:01.370Z,-0.75
2018-12-03T09:40:30.733Z,-0.70
2018-12-03T09:42:59.398Z,-0.62
2018-12-03T09:45:28.132Z,-0.47
2018-12-03T09:47:56.803Z,-0.28
2018-12-03T09:50:26.835Z,-0.10
2018-12-03T09:52:55.947Z,0.02
2018-12-03T09:55:28.924Z,0.05
2018-12-03T09:58:12.656Z,0.17
2018-12-03T10:00:41.618Z,0.10
2018-12-03T10:03:19.889Z,-0.05
2018-12-03T10:05:54.257Z,0.33
2018-12-03T10:08:32.671Z,0.51
2018-12-03T10:11:02.734Z,0.38
2018-12-03T10:13:32.538Z,0.31
2018-12-03T10:16:01.192Z,0.16
2018-12-03T10:18:29.910Z,0.15
2018-12-03T10:20:59.956Z,0.19
2018-12-03T10:23:28.661Z,0.08
2018-12-03T10:25:58.797Z,0.17
2018-12-03T10:28:27.878Z,0.30
2018-12-03T10:30:57.653Z,0.21
2018-12-03T10:33:34.322Z,0.38
2018-12-03T10:36:06.923Z,0.41
2018-12-03T10:38:37.510Z,0.59
2018-12-03T10:41:12.812Z,1.06
2018-12-03T10:43:41.595Z,1.48
2018-12-03T10:46:11.277Z,1.64
2018-12-03T10:48:39.938Z,1.64
2018-12-03T10:51:13.400Z,1.83
2018-12-03T10:53:42.399Z,2.10
2018-12-03T10:56:11.144Z,2.27
2018-12-03T10:58:42.047Z,2.46
2018-12-03T11:01:31.863Z,2.79
2018-12-03T11:04:00.577Z,3.08
2018-12-03T11:06:29.439Z,3.04
2018-12-03T11:08:58.175Z,3.15
2018-12-03T11:11:26.899Z,3.66
2018-12-03T11:13:56.477Z,4.03
2018-12-03T11:16:28.628Z,4.38
2018-12-03T11:18:58.257Z,4.15
2018-12-03T11:21:27.474Z,3.74
2018-12-03T11:23:56.226Z,3.66
2018-12-03T11:26:31.252Z,3.29
2018-12-03T11:28:59.917Z,3.31
2018-12-03T11:31:30.139Z,3.41
2018-12-03T11:33:58.896Z,2.92
2018-12-03T11:36:30.525Z,2.69
2018-12-03T11:39:07.472Z,2.34
2018-12-03T11:41:36.189Z,1.92
2018-12-03T11:44:05.353Z,1.74
2018-12-03T11:46:34.247Z,1.72
2018-12-03T11:49:02.886Z,1.52
2018-12-03T11:51:31.588Z,1.61
2018-12-03T11:54:00.291Z,1.71
2018-12-03T11:56:29.057Z,1.76
2018-12-03T11:58:57.724Z,1.54
2018-12-03T12:01:26.403Z,1.51
2018-12-03T12:03:55.093Z,1.24
2018-12-03T12:06:23.747Z,1.21
2018-12-03T12:08:52.429Z,1.24
2018-12-03T12:11:21.062Z,1.41
2018-12-03T12:13:49.690Z,1.28
2018-12-03T12:16:18.455Z,0.85
2018-12-03T12:18:47.058Z,0.36
2018-12-03T12:21:15.720Z,0.36
2018-12-03T12:23:44.347Z,0.57
2018-12-03T12:26:13.010Z,0.75
2018-12-03T12:28:41.645Z,0.81
2018-12-03T12:31:10.277Z,0.68
2018-12-03T12:33:38.912Z,0.64
2018-12-03T12:36:08.255Z,0.51
2018-12-03T12:38:36.899Z,0.47
2018-12-03T12:41:05.645Z,0.29
2018-12-03T12:43:34.322Z,0.18
2018-12-03T12:46:06.778Z,0.26
2018-12-03T12:48:35.452Z,0.39
2018-12-03T12:51:04.244Z,0.18
2018-12-03T12:53:32.869Z,0.12
2018-12-03T12:56:01.487Z,0.17
2018-12-03T12:58:30.200Z,0.25
2018-12-03T13:00:58.853Z,0.30
2018-12-03T13:03:27.645Z,0.21
2018-12-03T13:05:56.680Z,0.15
2018-12-03T13:08:25.148Z,0.12
2018-12-03T13:10:53.820Z,0.16
2018-12-03T13:13:22.500Z,0.13
2018-12-03T13:15:51.219Z,0.18
2018-12-03T13:18:19.893Z,0.29
2018-12-03T13:20:49.134Z,0.31
2018-12-03T13:23:17.823Z,0.18
2018-12-03T13:25:46.514Z,0.12
2018-12-03T13:28:15.181Z,0.16
2018-12-03T13:30:43.924Z,0.20
2018-12-03T13:33:12.659Z,0.21
2018-12-03T13:35:41.395Z,0.18
2018-12-03T13:38:10.019Z,0.20
2018-12-03T13:40:38.635Z,0.14
2018-12-03T13:43:07.309Z,0.14
2018-12-03T13:45:36.014Z,-0.02
2018-12-03T13:48:04.684Z,0.08
2018-12-03T13:50:33.373Z,0.20
2018-12-03T13:53:02.085Z,0.15
2018-12-03T13:55:31.050Z,0.18
2018-12-03T13:57:59.634Z,0.14
2018-12-03T14:00:28.321Z,0.09
2018-12-03T14:03:00.247Z,0.03
2018-12-03T14:05:30.771Z,0.13
2018-12-03T14:08:07.857Z,0.11
2018-12-03T14:10:50.156Z,0.10
2018-12-03T14:15:37.726Z,0.09
2018-12-03T14:18:16.186Z,0.20
2018-12-03T14:20:47.740Z,0.04
2018-12-03T14:23:20.084Z,-0.16
2018-12-03T14:25:48.381Z,-0.32
2018-12-03T14:28:17.179Z,-0.36
2018-12-03T14:30:45.816Z,-0.18
2018-12-03T14:33:14.504Z,-0.25
2018-12-03T14:35:43.199Z,-0.33
2018-12-03T14:38:11.930Z,-0.28
2018-12-03T14:40:40.707Z,-0.17
2018-12-03T14:43:09.360Z,-0.18
2018-12-03T14:45:37.975Z,-0.07
2018-12-03T14:48:06.623Z,0.01
2018-12-03T14:50:35.255Z,-0.11
2018-12-03T14:53:07.728Z,-0.13
2018-12-03T14:55:32.858Z,-0.18
2018-12-03T14:58:01.547Z,-0.20
2018-12-03T15:00:30.259Z,-0.19
2018-12-03T15:02:58.937Z,-0.27
2018-12-03T15:05:27.624Z,-0.12
2018-12-03T15:07:56.372Z,-0.03
2018-12-03T15:10:25.060Z,0.02
2018-12-03T15:12:53.721Z,-0.18
2018-12-03T15:15:22.367Z,-0.38
2018-12-03T15:17:51.065Z,-0.39
2018-12-03T15:20:19.747Z,-0.37
2018-12-03T15:22:48.463Z,-0.41
2018-12-03T15:25:17.201Z,-0.34
2018-12-03T15:27:45.860Z,-0.35
2018-12-03T15:30:14.577Z,-0.32
2018-12-03T15:33:07.584Z,-0.23
2018-12-03T15:35:37.094Z,-0.39
2018-12-03T15:38:05.790Z,-0.48
2018-12-03T15:40:34.718Z,-0.41
2018-12-03T15:43:03.419Z,-0.42
2018-12-03T15:45:32.120Z,-0.58
2018-12-03T15:48:00.935Z,-0.60
2018-12-03T15:50:29.916Z,-0.62
2018-12-03T15:52:58.556Z,-0.67
2018-12-03T15:55:27.209Z,-0.69
2018-12-03T15:57:55.889Z,-0.69
2018-12-03T16:00:24.534Z,-0.71
2018-12-03T16:02:53.191Z,-0.75
2018-12-03T16:05:24.640Z,-0.78
2018-12-03T16:07:53.401Z,-0.84
2018-12-03T16:10:22.111Z,-0.89
2018-12-03T16:12:51.269Z,-0.93
2018-12-03T16:15:19.921Z,-0.91
2018-12-03T16:17:48.605Z,-1.76
2018-12-03T16:20:17.377Z,-0.98
2018-12-03T16:22:46.042Z,-1.13
2018-12-03T16:25:14.829Z,-1.00
2018-12-03T16:27:43.520Z,-1.15
2018-12-03T16:30:20.779Z,-1.11
2018-12-03T16:32:49.619Z,-1.01
2018-12-03T16:35:18.372Z,-1.00
2018-12-03T16:37:47.045Z,-1.06
2018-12-03T16:40:15.733Z,-0.98
2018-12-03T16:42:44.399Z,-1.06
2018-12-03T16:45:13.084Z,-1.05
2018-12-03T16:47:41.853Z,-1.00
2018-12-03T16:50:10.812Z,-1.03
2018-12-03T16:52:39.581Z,-1.06
2018-12-03T16:55:08.271Z,-1.09
2018-12-03T16:57:36.980Z,-1.09
2018-12-03T17:00:16.221Z,-1.21
2018-12-03T17:02:44.915Z,-1.24
2018-12-03T17:05:13.607Z,-1.27
2018-12-03T17:07:42.268Z,-1.42
2018-12-03T17:10:13.452Z,-1.41
2018-12-03T17:12:42.310Z,-1.30
2018-12-03T17:15:11.034Z,-1.21
2018-12-03T17:17:39.814Z,-1.15
2018-12-03T17:20:14.904Z,-1.06
2018-12-03T17:23:01.123Z,-0.99
2018-12-03T17:25:29.813Z,-1.03
2018-12-03T17:27:58.500Z,-1.05
2018-12-03T17:30:27.381Z,-0.99
2018-12-03T17:32:56.102Z,-1.10
2018-12-03T17:35:24.771Z,-1.00
2018-12-03T17:37:53.489Z,-0.86
2018-12-03T17:40:22.176Z,-0.93
2018-12-03T17:42:51.223Z,-1.00
2018-12-03T17:45:19.905Z,-1.06
2018-12-03T17:47:48.619Z,-1.07
2018-12-03T17:50:17.394Z,-1.06
2018-12-03T17:52:46.065Z,-0.95
2018-12-03T17:55:14.696Z,-0.89
2018-12-03T17:57:43.393Z,-1.09
2018-12-03T18:00:14.331Z,-1.07
2018-12-03T18:02:43.206Z,-0.97
2018-12-03T18:05:11.919Z,-0.97
2018-12-03T18:07:40.563Z,-0.95
2018-12-03T18:10:10.987Z,-0.92
2018-12-03T18:12:39.828Z,-1.00
2018-12-03T18:15:09.171Z,-1.07
2018-12-03T18:17:37.810Z,-0.93
2018-12-03T18:20:08.563Z,-0.91
2018-12-03T18:22:37.279Z,-0.93
2018-12-03T18:25:06.757Z,-0.90
2018-12-03T18:27:35.462Z,-1.01
2018-12-03T18:30:08.550Z,-1.05
2018-12-03T18:32:37.256Z,-1.14
2018-12-03T18:35:06.215Z,-1.08
2018-12-03T18:37:35.957Z,-0.99
2018-12-03T18:40:04.938Z,-1.11
2018-12-03T18:42:33.602Z,-1.14
2018-12-03T18:45:02.320Z,-1.18
2018-12-03T18:47:31.030Z,-1.21
2018-12-03T18:50:01.885Z,-1.21
2018-12-03T18:52:30.597Z,-1.13
2018-12-03T18:54:59.280Z,-1.06
2018-12-03T18:57:27.906Z,-1.18
2018-12-03T18:59:56.566Z,-1.16
2018-12-03T19:02:25.294Z,-1.19
2018-12-03T19:04:53.995Z,-1.07
2018-12-03T19:07:22.609Z,-0.89
2018-12-03T19:09:51.294Z,-0.91
2018-12-03T19:12:19.936Z,-1.00
2018-12-03T19:14:48.596Z,-1.12
2018-12-03T19:17:17.247Z,-3.18
2018-12-03T19:19:45.949Z,-1.07
2018-12-03T19:22:14.624Z,-0.82
2018-12-03T19:24:43.415Z,-0.84
2018-12-03T19:27:12.091Z,-0.95
2018-12-03T19:29:40.716Z,-0.92
2018-12-03T19:32:09.360Z,-1.09
2018-12-03T19:34:38.850Z,-0.96
2018-12-03T19:37:07.581Z,-1.07
2018-12-03T19:39:36.252Z,-1.09
2018-12-03T19:42:05.035Z,-1.05
2018-12-03T19:44:34.915Z,-0.92
2018-12-03T19:47:03.604Z,-0.90
2018-12-03T19:49:32.298Z,-0.89
2018-12-03T19:52:01.686Z,-0.85
2018-12-03T19:54:30.353Z,-0.96
2018-12-03T19:57:00.568Z,-0.86
2018-12-03T19:59:32.857Z,-0.84
2018-12-03T20:02:01.436Z,-0.95
2018-12-03T20:04:35.225Z,-1.10
2018-12-03T20:07:03.928Z,-1.10
2018-12-03T20:09:32.630Z,-1.08
2018-12-03T20:12:01.344Z,-1.01
2018-12-03T20:14:30.537Z,-1.02
2018-12-03T20:17:00.201Z,-1.10
2018-12-03T20:20:11.517Z,-1.23
2018-12-03T20:22:49.146Z,-1.24
2018-12-03T20:25:20.847Z,-1.28
2018-12-03T20:28:01.263Z,-1.22
2018-12-03T20:32:42.913Z,-1.20
2018-12-03T20:35:20.307Z,-1.31
2018-12-03T20:38:11.504Z,-1.38
2018-12-03T20:40:48.595Z,-1.32
2018-12-03T20:43:21.198Z,-1.38
2018-12-03T20:46:00.720Z,-1.52
2018-12-03T20:48:37.310Z,-1.56
2018-12-03T20:51:13.445Z,-1.57
2018-12-03T20:53:45.785Z,-1.63
2018-12-03T20:56:15.054Z,-1.51
2018-12-03T20:58:43.824Z,-2.97
2018-12-03T21:01:12.458Z,-1.77
2018-12-03T21:03:41.122Z,-1.73
2018-12-03T21:06:09.822Z,-1.71
2018-12-03T21:08:38.457Z,-1.57
2018-12-03T21:11:07.137Z,-1.64
2018-12-03T21:13:35.751Z,-1.60
2018-12-03T21:16:04.784Z,-1.74
2018-12-03T21:18:33.537Z,-1.82
2018-12-03T21:21:04.349Z,-1.82
2018-12-03T21:23:33.391Z,-1.79
2018-12-03T21:26:02.042Z,-1.66
2018-12-03T21:28:30.686Z,-1.59
2018-12-03T21:30:59.336Z,-1.77
2018-12-03T21:33:28.074Z,-1.79
2018-12-03T21:35:56.830Z,-1.77
2018-12-03T21:38:25.505Z,-1.79
2018-12-03T21:40:54.106Z,-1.64
2018-12-03T21:43:23.598Z,-1.67
2018-12-03T21:45:52.607Z,-1.60
2018-12-03T21:48:21.293Z,-1.59
2018-12-03T21:50:50.240Z,-1.55
2018-12-03T21:53:18.915Z,-1.56
2018-12-03T21:55:47.573Z,-1.54
2018-12-03T21:58:16.499Z,-1.65
2018-12-03T22:00:45.162Z,-1.71
2018-12-03T22:03:13.817Z,-1.70
2018-12-03T22:05:42.637Z,-1.67
2018-12-03T22:08:11.322Z,-1.70
2018-12-03T22:10:39.981Z,-1.60
2018-12-03T22:13:08.617Z,-1.57
2018-12-03T22:15:37.333Z,-1.63
2018-12-03T22:18:05.979Z,-1.77
2018-12-03T22:20:34.702Z,-1.78
2018-12-03T22:23:03.361Z,-1.61
2018-12-03T22:25:31.991Z,-1.68
2018-12-03T22:28:00.663Z,-1.92
2018-12-03T22:30:29.302Z,-1.88
2018-12-03T22:32:57.915Z,-1.76
2018-12-03T22:35:26.698Z,-1.73
2018-12-03T22:37:55.811Z,-1.75
2018-12-03T22:40:24.390Z,-1.68
2018-12-03T22:42:53.105Z,-1.61
2018-12-03T22:45:21.740Z,-1.64
2018-12-03T22:47:50.330Z,-1.69
2018-12-03T22:50:18.994Z,-1.73
2018-12-03T22:52:47.614Z,-1.75
2018-12-03T22:55:16.242Z,-1.70
2018-12-03T22:57:44.890Z,-1.59
2018-12-03T23:00:20.910Z,-1.61
2018-12-03T23:02:49.566Z,-1.54
2018-12-03T23:05:18.200Z,-1.61
2018-12-03T23:07:46.811Z,-1.59
2018-12-03T23:10:15.455Z,-1.52
2018-12-03T23:12:44.112Z,-1.47
2018-12-03T23:15:12.670Z,-1.53
2018-12-03T23:17:41.288Z,-1.58
2018-12-03T23:20:09.993Z,-1.65
2018-12-03T23:22:38.560Z,-1.73
2018-12-03T23:25:07.232Z,-1.66
2018-12-03T23:27:36.099Z,-1.77
2018-12-03T23:30:09.208Z,-1.79
2018-12-03T23:32:37.852Z,-1.71
2018-12-03T23:35:07.078Z,-1.71
2018-12-03T23:37:35.790Z,-1.63
2018-12-03T23:40:05.008Z,-1.57
2018-12-03T23:42:33.640Z,-1.56
2018-12-03T23:45:02.246Z,-1.58
2018-12-03T23:47:30.883Z,-1.68
2018-12-03T23:49:59.481Z,-1.72
2018-12-03T23:52:28.116Z,-1.78
2018-12-03T23:54:56.820Z,-1.78
2018-12-03T23:57:25.430Z,-1.85
2018-12-03T23:59:54.043Z,-1.90
